createdAt,value
2019-03-20T00:00:31.279Z,101675
2019-03-20T00:05:31.288Z,101678
2019-03-20T00:10:31.306Z,101688
2019-03-20T00:15:31.278Z,101685
2019-03-20T00:20:31.274Z,101672
2019-03-20T00:25:31.306Z,101680
2019-03-20T00:30:31.285Z,101673
2019-03-20T00:35:31.299Z,101671
2019-03-20T00:40:31.317Z,101663
2019-03-20T00:45:31.305Z,101681
2019-03-20T00:50:31.302Z,101680
2019-03-20T00:55:31.333Z,101668
2019-03-20T01:00:31.310Z,101670
2019-03-20T01:05:31.353Z,101663
2019-03-20T01:10:31.350Z,101663
2019-03-20T01:15:31.309Z,101660
2019-03-20T01:20:31.307Z,101670
2019-03-20T01:25:31.329Z,101673
2019-03-20T01:30:31.326Z,101669
2019-03-20T01:35:31.358Z,101664
2019-03-20T01:40:31.374Z,101672
2019-03-20T01:45:31.319Z,101669
2019-03-20T01:50:31.324Z,101676
2019-03-20T01:55:31.317Z,101679
2019-03-20T02:00:31.364Z,101677
2019-03-20T02:05:36.058Z,101686
2019-03-20T02:10:31.334Z,101677
2019-03-20T02:15:38.483Z,101688
2019-03-20T02:20:31.331Z,101686
2019-03-20T02:25:32.458Z,101682
2019-03-20T02:30:31.377Z,101688
2019-03-20T02:35:31.357Z,101692
2019-03-20T02:40:31.350Z,101682
2019-03-20T02:45:31.372Z,101698
2019-03-20T02:50:31.357Z,101702
2019-03-20T02:55:31.346Z,101690
2019-03-20T03:00:31.378Z,101697
2019-03-20T03:05:31.361Z,101702
2019-03-20T03:10:31.377Z,101709
2019-03-20T03:15:31.386Z,101716
2019-03-20T03:20:31.385Z,101716
2019-03-20T03:25:31.409Z,101720
2019-03-20T03:30:31.393Z,101718
2019-03-20T03:35:31.388Z,101715
2019-03-20T03:40:31.390Z,101709
2019-03-20T03:45:31.400Z,101713
2019-03-20T03:50:31.408Z,101729
2019-03-20T03:55:31.397Z,101735
2019-03-20T04:00:31.381Z,101734
2019-03-20T04:05:31.436Z,101737
2019-03-20T04:10:31.391Z,101747
2019-03-20T04:15:31.414Z,101744
2019-03-20T04:20:31.401Z,101741
2019-03-20T04:25:31.414Z,101745
2019-03-20T04:30:31.427Z,101745
2019-03-20T04:35:31.410Z,101743
2019-03-20T04:40:31.403Z,101759
2019-03-20T04:45:31.398Z,101754
2019-03-20T04:50:31.421Z,101753
2019-03-20T04:55:31.405Z,101755
2019-03-20T05:00:31.465Z,101752
2019-03-20T05:05:31.412Z,101752
2019-03-20T05:10:31.400Z,101752
2019-03-20T05:15:31.412Z,101754
2019-03-20T05:20:31.414Z,101767
2019-03-20T05:25:31.423Z,101764
2019-03-20T05:30:31.465Z,101772
2019-03-20T05:35:31.427Z,101772
2019-03-20T05:40:31.429Z,101761
2019-03-20T05:45:31.442Z,101772
2019-03-20T05:50:31.443Z,101794
2019-03-20T05:55:31.457Z,101786
2019-03-20T06:00:31.438Z,101799
2019-03-20T06:05:31.433Z,101797
2019-03-20T06:10:31.441Z,101817
2019-03-20T06:15:31.470Z,101821
2019-03-20T06:20:33.683Z,101809
2019-03-20T06:25:31.451Z,101820
2019-03-20T06:30:31.462Z,101835
2019-03-20T06:35:31.445Z,101836
2019-03-20T06:40:31.494Z,101832
2019-03-20T06:45:31.454Z,101831
2019-03-20T06:50:31.456Z,101830
2019-03-20T06:55:31.455Z,101836
2019-03-20T07:00:31.478Z,101818
2019-03-20T07:05:31.522Z,101825
2019-03-20T07:10:31.473Z,101823
2019-03-20T07:15:31.475Z,101830
2019-03-20T07:20:31.483Z,101832
2019-03-20T07:25:31.478Z,101837
2019-03-20T07:30:31.490Z,101838
2019-03-20T07:35:31.476Z,101839
2019-03-20T07:40:31.470Z,101838
2019-03-20T07:45:31.522Z,101862
2019-03-20T07:50:31.477Z,101861
2019-03-20T07:55:31.502Z,101862
2019-03-20T08:00:31.510Z,101858
2019-03-20T08:05:31.492Z,101878
2019-03-20T08:10:31.490Z,101875
2019-03-20T08:15:31.515Z,101887
2019-03-20T08:20:31.495Z,101884
2019-03-20T08:25:31.538Z,101890
2019-03-20T08:30:31.514Z,101896
2019-03-20T08:35:31.503Z,101888
2019-03-20T08:40:31.508Z,101898
2019-03-20T08:45:31.538Z,101904
2019-03-20T08:50:31.502Z,101897
2019-03-20T08:55:31.506Z,101906
2019-03-20T09:00:31.523Z,101904
2019-03-20T09:05:31.518Z,101911
2019-03-20T09:10:31.515Z,101906
2019-03-20T09:15:31.531Z,101913
2019-03-20T09:20:31.521Z,101908
2019-03-20T09:25:31.513Z,101923
2019-03-20T09:30:31.556Z,101931
2019-03-20T09:35:31.532Z,101926
2019-03-20T09:40:31.534Z,101928
2019-03-20T09:45:31.549Z,101930
2019-03-20T09:50:31.527Z,101929
2019-03-20T09:55:31.533Z,101927
2019-03-20T10:00:31.579Z,101922
2019-03-20T10:05:31.571Z,101927
2019-03-20T10:10:31.540Z,101935
2019-03-20T10:15:31.633Z,101938
2019-03-20T10:20:31.546Z,101933
2019-03-20T10:25:31.546Z,101936
2019-03-20T10:30:31.585Z,101937
2019-03-20T10:35:31.546Z,101939
2019-03-20T10:40:31.567Z,101943
2019-03-20T10:45:31.601Z,101927
2019-03-20T10:50:31.567Z,101930
2019-03-20T10:55:31.566Z,101934
2019-03-20T11:00:31.615Z,101927
2019-03-20T11:05:31.599Z,101939
2019-03-20T11:10:31.577Z,101941
2019-03-20T11:15:31.594Z,101932
2019-03-20T11:20:31.579Z,101933
2019-03-20T11:25:31.589Z,101921
2019-03-20T11:30:31.594Z,101933
2019-03-20T11:35:31.599Z,101915
2019-03-20T11:40:31.640Z,101915
2019-03-20T11:45:31.642Z,101914
2019-03-20T11:50:31.583Z,101922
2019-03-20T11:55:31.611Z,101912
2019-03-20T12:00:31.632Z,101912
2019-03-20T12:05:31.593Z,101902
2019-03-20T12:10:31.610Z,101907
2019-03-20T12:15:31.625Z,101901
2019-03-20T12:20:31.592Z,101890
2019-03-20T12:25:31.620Z,101887
2019-03-20T12:30:31.616Z,101886
2019-03-20T12:35:31.624Z,101885
2019-03-20T12:40:31.609Z,101884
2019-03-20T12:45:31.612Z,101874
2019-03-20T12:50:31.614Z,101857
2019-03-20T12:55:31.608Z,101859
2019-03-20T13:00:31.627Z,101863
2019-03-20T13:05:31.609Z,101863
2019-03-20T13:10:31.620Z,101859
2019-03-20T13:15:33.372Z,101857
2019-03-20T13:20:31.629Z,101862
2019-03-20T13:25:31.626Z,101870
2019-03-20T13:30:31.653Z,101860
2019-03-20T13:35:31.627Z,101861
2019-03-20T13:40:31.637Z,101870
2019-03-20T13:45:31.664Z,101855
2019-03-20T13:50:31.635Z,101861
2019-03-20T13:55:31.637Z,101859
2019-03-20T14:00:31.640Z,101870
2019-03-20T14:05:31.694Z,101871
2019-03-20T14:10:31.681Z,101879
2019-03-20T14:15:31.663Z,101852
2019-03-20T14:20:31.651Z,101858
2019-03-20T14:25:31.652Z,101843
2019-03-20T14:30:31.674Z,101846
2019-03-20T14:35:31.656Z,101838
2019-03-20T14:40:35.960Z,101833
2019-03-20T14:45:31.658Z,101827
2019-03-20T14:50:31.670Z,101824
2019-03-20T14:55:31.666Z,101822
2019-03-20T15:00:31.730Z,101829
2019-03-20T15:05:31.677Z,101810
2019-03-20T15:10:31.683Z,101818
2019-03-20T15:15:31.690Z,101826
2019-03-20T15:20:31.682Z,101823
2019-03-20T15:25:31.684Z,101816
2019-03-20T15:30:31.692Z,101814
2019-03-20T15:35:31.684Z,101828
2019-03-20T15:40:31.681Z,101824
2019-03-20T15:45:31.699Z,101814
2019-03-20T15:50:31.684Z,101800
2019-03-20T15:55:31.695Z,101815
2019-03-20T16:00:31.689Z,101815
2019-03-20T16:05:31.810Z,101810
2019-03-20T16:10:31.709Z,101798
2019-03-20T16:15:31.709Z,101806
2019-03-20T16:20:31.707Z,101811
2019-03-20T16:25:31.711Z,101811
2019-03-20T16:30:31.730Z,101821
2019-03-20T16:35:31.729Z,101817
2019-03-20T16:40:31.714Z,101817
2019-03-20T16:45:31.727Z,101811
2019-03-20T16:50:31.715Z,101806
2019-03-20T16:55:31.729Z,101813
2019-03-20T17:00:31.733Z,101796
2019-03-20T17:05:31.723Z,101811
2019-03-20T17:10:31.723Z,101820
2019-03-20T17:15:31.751Z,101823
2019-03-20T17:20:31.737Z,101824
2019-03-20T17:25:31.735Z,101836
2019-03-20T17:30:31.735Z,101832
2019-03-20T17:35:31.731Z,101829
2019-03-20T17:40:31.735Z,101823
2019-03-20T17:45:31.753Z,101834
2019-03-20T17:50:31.767Z,101841
2019-03-20T17:55:31.755Z,101840
2019-03-20T18:00:31.785Z,101842
2019-03-20T18:05:31.756Z,101842
2019-03-20T18:10:33.231Z,101841
2019-03-20T18:15:31.792Z,101837
2019-03-20T18:20:31.773Z,101844
2019-03-20T18:25:31.768Z,101856
2019-03-20T18:30:31.780Z,101869
2019-03-20T18:35:31.768Z,101870
2019-03-20T18:40:31.768Z,101870
2019-03-20T18:45:31.801Z,101886
2019-03-20T18:50:31.769Z,101883
2019-03-20T18:55:31.771Z,101877
2019-03-20T19:00:31.790Z,101887
2019-03-20T19:05:31.817Z,101888
2019-03-20T19:10:31.781Z,101887
2019-03-20T19:15:31.809Z,101887
2019-03-20T19:20:31.811Z,101889
2019-03-20T19:25:31.822Z,101895
2019-03-20T19:30:31.801Z,101903
2019-03-20T19:35:31.808Z,101902
2019-03-20T19:40:31.793Z,101899
2019-03-20T19:45:31.797Z,101900
2019-03-20T19:50:31.796Z,101902
2019-03-20T19:55:31.808Z,101892
2019-03-20T20:00:31.799Z,101886
2019-03-20T20:05:31.795Z,101889
2019-03-20T20:10:31.793Z,101894
2019-03-20T20:15:31.855Z,101895
2019-03-20T20:20:31.819Z,101902
2019-03-20T20:25:31.812Z,101894
2019-03-20T20:30:31.811Z,101897
2019-03-20T20:35:31.806Z,101898
2019-03-20T20:40:31.805Z,101899
2019-03-20T20:45:31.822Z,101896
2019-03-20T20:50:31.818Z,101892
2019-03-20T20:55:31.819Z,101894
2019-03-20T21:00:31.832Z,101892
2019-03-20T21:05:31.827Z,101905
2019-03-20T21:10:31.830Z,101900
2019-03-20T21:15:31.830Z,101902
2019-03-20T21:20:31.838Z,101897
2019-03-20T21:25:31.837Z,101910
2019-03-20T21:30:31.871Z,101911
2019-03-20T21:35:31.855Z,101913
2019-03-20T21:40:31.836Z,101908
2019-03-20T21:45:31.863Z,101915
2019-03-20T21:50:31.859Z,101917
2019-03-20T21:55:31.839Z,101918
2019-03-20T22:00:31.860Z,101926
2019-03-20T22:05:31.865Z,101928
2019-03-20T22:10:31.846Z,101934
2019-03-20T22:15:31.858Z,101933
2019-03-20T22:20:31.862Z,101943
2019-03-20T22:25:31.851Z,101941
2019-03-20T22:30:31.874Z,101947
2019-03-20T22:35:31.867Z,101949
2019-03-20T22:40:31.871Z,101950
2019-03-20T22:45:31.885Z,101962
2019-03-20T22:50:31.874Z,101960
2019-03-20T22:55:31.876Z,101968
2019-03-20T23:00:31.908Z,101978
2019-03-20T23:05:31.893Z,101979
2019-03-20T23:10:31.881Z,101978
2019-03-20T23:15:31.881Z,101984
2019-03-20T23:20:31.883Z,101991
2019-03-20T23:25:31.888Z,101998
2019-03-20T23:30:31.928Z,101992
2019-03-20T23:35:31.895Z,101987
2019-03-20T23:40:31.891Z,101984
2019-03-20T23:45:31.908Z,101987
2019-03-20T23:50:31.895Z,101986
2019-03-20T23:55:31.909Z,101992
